sensor_id;sensor_type;location;lat;lon;timestamp;pressure;altitude;pressure_sealevel;temperature;humidity
59063;BME280;44851;45.648;9.004;2023-05-08T00:01:23;99024.34;;;19.61;53.75
59063;BME280;44851;45.648;9.004;2023-05-08T00:03:50;99021.22;;;19.51;53.24
59063;BME280;44851;45.648;9.004;2023-05-08T00:06:16;99020.34;;;19.44;52.77
59063;BME280;44851;45.648;9.004;2023-05-08T00:08:41;99025.09;;;19.14;53.75
59063;BME280;44851;45.648;9.004;2023-05-08T00:11:06;99039.63;;;18.97;53.24
59063;BME280;44851;45.648;9.004;2023-05-08T00:13:32;99034.06;;;19.19;53.80
59063;BME280;44851;45.648;9.004;2023-05-08T00:15:57;99037.41;;;19.35;54.31
59063;BME280;44851;45.648;9.004;2023-05-08T00:18:22;99036.00;;;19.04;54.69
59063;BME280;44851;45.648;9.004;2023-05-08T00:20:48;99025.97;;;19.28;54.07
59063;BME280;44851;45.648;9.004;2023-05-08T00:23:13;99026.53;;;19.16;54.16
59063;BME280;44851;45.648;9.004;2023-05-08T00:25:38;99028.38;;;19.23;53.43
59063;BME280;44851;45.648;9.004;2023-05-08T00:28:04;99028.22;;;18.96;53.68
59063;BME280;44851;45.648;9.004;2023-05-08T00:30:29;99030.72;;;19.04;54.39
59063;BME280;44851;45.648;9.004;2023-05-08T00:32:55;99039.34;;;19.19;54.47
59063;BME280;44851;45.648;9.004;2023-05-08T00:35:20;99034.31;;;19.25;54.42
59063;BME280;44851;45.648;9.004;2023-05-08T00:37:46;99036.47;;;19.14;55.42
59063;BME280;44851;45.648;9.004;2023-05-08T00:40:11;99028.50;;;19.08;54.86
59063;BME280;44851;45.648;9.004;2023-05-08T00:42:37;99024.59;;;18.97;54.67
59063;BME280;44851;45.648;9.004;2023-05-08T00:45:02;99035.19;;;19.04;55.52
59063;BME280;44851;45.648;9.004;2023-05-08T00:47:29;99034.75;;;19.00;55.82
59063;BME280;44851;45.648;9.004;2023-05-08T00:49:54;99029.75;;;18.84;56.30
59063;BME280;44851;45.648;9.004;2023-05-08T00:52:20;99038.13;;;18.66;56.23
59063;BME280;44851;45.648;9.004;2023-05-08T00:54:46;99042.34;;;18.82;56.56
59063;BME280;44851;45.648;9.004;2023-05-08T00:57:14;99049.38;;;18.53;56.22
59063;BME280;44851;45.648;9.004;2023-05-08T00:59:40;99051.09;;;18.61;57.50
59063;BME280;44851;45.648;9.004;2023-05-08T01:02:07;99049.81;;;18.35;57.70
59063;BME280;44851;45.648;9.004;2023-05-08T01:04:33;99054.78;;;18.24;58.25
59063;BME280;44851;45.648;9.004;2023-05-08T01:07:00;99045.34;;;18.36;59.12
59063;BME280;44851;45.648;9.004;2023-05-08T01:09:26;99048.00;;;18.36;58.85
59063;BME280;44851;45.648;9.004;2023-05-08T01:14:28;99047.69;;;18.46;59.27
59063;BME280;44851;45.648;9.004;2023-05-08T01:17:11;99042.72;;;18.36;58.49
59063;BME280;44851;45.648;9.004;2023-05-08T01:22:43;99060.44;;;18.42;59.40
59063;BME280;44851;45.648;9.004;2023-05-08T01:25:45;99063.47;;;18.39;59.20
59063;BME280;44851;45.648;9.004;2023-05-08T01:31:39;99076.78;;;18.31;59.57
59063;BME280;44851;45.648;9.004;2023-05-08T01:34:12;99083.31;;;18.35;60.17
59063;BME280;44851;45.648;9.004;2023-05-08T01:37:00;99083.63;;;18.25;60.13
59063;BME280;44851;45.648;9.004;2023-05-08T01:39:35;99077.88;;;18.22;60.74
59063;BME280;44851;45.648;9.004;2023-05-08T01:42:11;99077.63;;;18.16;60.64
59063;BME280;44851;45.648;9.004;2023-05-08T01:44:44;99079.28;;;18.17;60.87
59063;BME280;44851;45.648;9.004;2023-05-08T01:47:12;99088.75;;;18.12;61.60
59063;BME280;44851;45.648;9.004;2023-05-08T01:49:45;99096.47;;;18.13;61.90
59063;BME280;44851;45.648;9.004;2023-05-08T01:52:31;99086.28;;;18.10;61.32
59063;BME280;44851;45.648;9.004;2023-05-08T01:54:59;99085.53;;;18.16;62.15
59063;BME280;44851;45.648;9.004;2023-05-08T01:57:27;99088.50;;;18.07;62.24
59063;BME280;44851;45.648;9.004;2023-05-08T01:59:55;99084.13;;;17.99;62.51
59063;BME280;44851;45.648;9.004;2023-05-08T02:02:22;99090.31;;;17.91;62.88
59063;BME280;44851;45.648;9.004;2023-05-08T02:04:49;99088.22;;;18.02;63.00
59063;BME280;44851;45.648;9.004;2023-05-08T02:07:16;99089.59;;;17.83;63.37
59063;BME280;44851;45.648;9.004;2023-05-08T02:09:43;99091.31;;;17.76;63.67
59063;BME280;44851;45.648;9.004;2023-05-08T02:12:09;99084.97;;;17.70;64.04
59063;BME280;44851;45.648;9.004;2023-05-08T02:14:37;99094.78;;;17.76;64.33
59063;BME280;44851;45.648;9.004;2023-05-08T02:17:06;99092.16;;;17.61;64.78
59063;BME280;44851;45.648;9.004;2023-05-08T02:19:33;99094.44;;;17.50;64.81
59063;BME280;44851;45.648;9.004;2023-05-08T02:22:00;99101.78;;;17.54;64.73
59063;BME280;44851;45.648;9.004;2023-05-08T02:24:25;99093.53;;;17.43;65.50
59063;BME280;44851;45.648;9.004;2023-05-08T02:26:52;99091.78;;;17.64;64.37
59063;BME280;44851;45.648;9.004;2023-05-08T02:29:20;99099.34;;;17.53;64.61
59063;BME280;44851;45.648;9.004;2023-05-08T02:31:47;99100.25;;;17.45;65.06
59063;BME280;44851;45.648;9.004;2023-05-08T02:34:14;99100.03;;;17.47;64.64
59063;BME280;44851;45.648;9.004;2023-05-08T02:36:41;99105.78;;;17.50;65.18
59063;BME280;44851;45.648;9.004;2023-05-08T02:39:10;99111.94;;;17.57;64.82
59063;BME280;44851;45.648;9.004;2023-05-08T02:41:39;99114.31;;;17.52;65.25
59063;BME280;44851;45.648;9.004;2023-05-08T02:44:05;99109.97;;;17.59;65.74
59063;BME280;44851;45.648;9.004;2023-05-08T02:46:45;99117.59;;;17.54;65.43
59063;BME280;44851;45.648;9.004;2023-05-08T02:49:26;99120.50;;;17.45;65.74
59063;BME280;44851;45.648;9.004;2023-05-08T02:52:09;99124.97;;;17.44;65.44
59063;BME280;44851;45.648;9.004;2023-05-08T02:54:41;99128.31;;;17.38;66.58
59063;BME280;44851;45.648;9.004;2023-05-08T02:57:20;99122.47;;;17.28;66.17
59063;BME280;44851;45.648;9.004;2023-05-08T02:59:58;99124.47;;;17.11;66.29
59063;BME280;44851;45.648;9.004;2023-05-08T03:02:31;99127.31;;;17.01;67.16
59063;BME280;44851;45.648;9.004;2023-05-08T03:05:18;99117.59;;;17.02;65.99
59063;BME280;44851;45.648;9.004;2023-05-08T03:07:47;99127.16;;;16.80;67.48
59063;BME280;44851;45.648;9.004;2023-05-08T03:10:14;99132.66;;;17.08;66.70
59063;BME280;44851;45.648;9.004;2023-05-08T03:12:44;99132.19;;;17.04;66.21
59063;BME280;44851;45.648;9.004;2023-05-08T03:15:16;99127.06;;;16.88;65.98
59063;BME280;44851;45.648;9.004;2023-05-08T03:17:45;99127.25;;;16.86;66.40
59063;BME280;44851;45.648;9.004;2023-05-08T03:20:13;99124.72;;;16.93;66.27
59063;BME280;44851;45.648;9.004;2023-05-08T03:22:40;99125.53;;;16.94;65.76
59063;BME280;44851;45.648;9.004;2023-05-08T03:25:08;99124.38;;;16.96;65.91
59063;BME280;44851;45.648;9.004;2023-05-08T03:27:35;99117.47;;;16.95;66.68
59063;BME280;44851;45.648;9.004;2023-05-08T03:30:03;99118.75;;;16.99;67.31
59063;BME280;44851;45.648;9.004;2023-05-08T03:32:30;99123.28;;;16.91;67.54
59063;BME280;44851;45.648;9.004;2023-05-08T03:34:58;99123.91;;;16.93;67.39
59063;BME280;44851;45.648;9.004;2023-05-08T03:37:26;99124.00;;;16.99;67.28
59063;BME280;44851;45.648;9.004;2023-05-08T03:39:53;99122.84;;;17.02;68.22
59063;BME280;44851;45.648;9.004;2023-05-08T03:42:18;99116.38;;;17.12;67.70
59063;BME280;44851;45.648;9.004;2023-05-08T03:44:50;99119.75;;;17.21;67.86
59063;BME280;44851;45.648;9.004;2023-05-08T03:47:23;99125.56;;;17.31;67.60
59063;BME280;44851;45.648;9.004;2023-05-08T03:49:50;99125.75;;;17.30;67.60
59063;BME280;44851;45.648;9.004;2023-05-08T03:52:16;99122.19;;;17.23;67.66
59063;BME280;44851;45.648;9.004;2023-05-08T03:54:42;99123.31;;;17.05;68.28
59063;BME280;44851;45.648;9.004;2023-05-08T03:57:07;99121.63;;;17.12;69.47
59063;BME280;44851;45.648;9.004;2023-05-08T03:59:53;99127.91;;;17.11;67.42
59063;BME280;44851;45.648;9.004;2023-05-08T04:02:28;99134.28;;;17.17;68.35
59063;BME280;44851;45.648;9.004;2023-05-08T04:05:03;99147.66;;;17.07;68.59
59063;BME280;44851;45.648;9.004;2023-05-08T04:07:43;99146.97;;;17.13;69.05
59063;BME280;44851;45.648;9.004;2023-05-08T04:10:32;99155.78;;;17.21;67.43
59063;BME280;44851;45.648;9.004;2023-05-08T04:13:08;99158.06;;;17.24;68.65
59063;BME280;44851;45.648;9.004;2023-05-08T04:15:37;99158.72;;;17.26;68.47
59063;BME280;44851;45.648;9.004;2023-05-08T04:18:06;99163.56;;;17.37;69.08
59063;BME280;44851;45.648;9.004;2023-05-08T04:20:34;99166.56;;;17.34;69.06
59063;BME280;44851;45.648;9.004;2023-05-08T04:23:01;99165.78;;;17.48;69.30
59063;BME280;44851;45.648;9.004;2023-05-08T04:25:28;99166.75;;;17.47;68.86
59063;BME280;44851;45.648;9.004;2023-05-08T04:27:54;99172.56;;;17.43;69.07
59063;BME280;44851;45.648;9.004;2023-05-08T04:30:21;99171.50;;;17.67;69.38
59063;BME280;44851;45.648;9.004;2023-05-08T04:32:48;99179.41;;;17.67;69.53
59063;BME280;44851;45.648;9.004;2023-05-08T04:35:14;99175.34;;;17.64;69.13
59063;BME280;44851;45.648;9.004;2023-05-08T04:37:40;99189.94;;;17.67;68.68
59063;BME280;44851;45.648;9.004;2023-05-08T04:40:08;99183.94;;;17.73;69.38
59063;BME280;44851;45.648;9.004;2023-05-08T04:42:34;99189.50;;;17.78;68.98
59063;BME280;44851;45.648;9.004;2023-05-08T04:45:00;99186.94;;;17.84;69.50
59063;BME280;44851;45.648;9.004;2023-05-08T04:47:26;99195.44;;;17.80;68.75
59063;BME280;44851;45.648;9.004;2023-05-08T04:49:51;99190.75;;;17.67;69.56
59063;BME280;44851;45.648;9.004;2023-05-08T04:52:17;99196.59;;;17.77;69.51
59063;BME280;44851;45.648;9.004;2023-05-08T04:54:42;99189.94;;;17.67;69.25
59063;BME280;44851;45.648;9.004;2023-05-08T04:57:07;99188.00;;;17.46;69.50
59063;BME280;44851;45.648;9.004;2023-05-08T04:59:33;99190.75;;;17.52;70.90
59063;BME280;44851;45.648;9.004;2023-05-08T05:01:58;99189.78;;;17.53;69.50
59063;BME280;44851;45.648;9.004;2023-05-08T05:04:26;99187.41;;;17.58;70.20
59063;BME280;44851;45.648;9.004;2023-05-08T05:06:52;99194.75;;;17.63;70.04
59063;BME280;44851;45.648;9.004;2023-05-08T05:09:17;99193.59;;;17.65;69.97
59063;BME280;44851;45.648;9.004;2023-05-08T05:11:43;99197.66;;;17.68;70.14
59063;BME280;44851;45.648;9.004;2023-05-08T05:14:08;99194.66;;;17.56;69.34
59063;BME280;44851;45.648;9.004;2023-05-08T05:16:34;99195.59;;;17.63;69.09
59063;BME280;44851;45.648;9.004;2023-05-08T05:19:00;99192.56;;;17.52;68.65
59063;BME280;44851;45.648;9.004;2023-05-08T05:21:26;99195.47;;;17.57;69.61
59063;BME280;44851;45.648;9.004;2023-05-08T05:23:52;99197.09;;;17.58;69.76
59063;BME280;44851;45.648;9.004;2023-05-08T05:26:17;99200.03;;;17.48;68.84
59063;BME280;44851;45.648;9.004;2023-05-08T05:28:43;99193.75;;;17.49;68.71
59063;BME280;44851;45.648;9.004;2023-05-08T05:31:09;99200.19;;;17.47;69.50
59063;BME280;44851;45.648;9.004;2023-05-08T05:33:34;99201.13;;;17.54;69.25
59063;BME280;44851;45.648;9.004;2023-05-08T05:36:00;99202.03;;;17.61;70.12
59063;BME280;44851;45.648;9.004;2023-05-08T05:38:25;99202.28;;;17.51;68.92
59063;BME280;44851;45.648;9.004;2023-05-08T05:40:50;99206.31;;;17.62;69.94
59063;BME280;44851;45.648;9.004;2023-05-08T05:43:16;99211.03;;;17.67;69.83
59063;BME280;44851;45.648;9.004;2023-05-08T05:45:41;99212.78;;;17.74;69.50
59063;BME280;44851;45.648;9.004;2023-05-08T05:48:06;99212.88;;;17.81;69.45
59063;BME280;44851;45.648;9.004;2023-05-08T05:50:32;99216.88;;;17.77;68.74
59063;BME280;44851;45.648;9.004;2023-05-08T05:52:57;99214.69;;;17.65;68.28
59063;BME280;44851;45.648;9.004;2023-05-08T05:55:23;99215.25;;;17.76;68.64
59063;BME280;44851;45.648;9.004;2023-05-08T05:57:48;99218.41;;;17.71;68.82
59063;BME280;44851;45.648;9.004;2023-05-08T06:00:14;99214.31;;;17.69;68.61
59063;BME280;44851;45.648;9.004;2023-05-08T06:02:40;99217.97;;;17.82;68.90
59063;BME280;44851;45.648;9.004;2023-05-08T06:05:07;99220.78;;;17.81;69.03
59063;BME280;44851;45.648;9.004;2023-05-08T06:07:32;99217.59;;;17.71;68.43
59063;BME280;44851;45.648;9.004;2023-05-08T06:09:58;99210.91;;;17.45;67.90
59063;BME280;44851;45.648;9.004;2023-05-08T06:12:23;99209.66;;;17.56;68.30
59063;BME280;44851;45.648;9.004;2023-05-08T06:14:50;99219.69;;;17.75;69.05
59063;BME280;44851;45.648;9.004;2023-05-08T06:17:16;99223.25;;;17.82;69.15
59063;BME280;44851;45.648;9.004;2023-05-08T06:19:41;99223.06;;;17.84;68.50
59063;BME280;44851;45.648;9.004;2023-05-08T06:22:07;99214.97;;;17.85;68.36
59063;BME280;44851;45.648;9.004;2023-05-08T06:24:32;99224.34;;;17.88;67.72
59063;BME280;44851;45.648;9.004;2023-05-08T06:26:59;99215.84;;;17.63;66.81
59063;BME280;44851;45.648;9.004;2023-05-08T06:29:24;99213.69;;;17.81;68.59
59063;BME280;44851;45.648;9.004;2023-05-08T06:31:50;99220.88;;;17.87;68.62
59063;BME280;44851;45.648;9.004;2023-05-08T06:34:15;99219.78;;;17.82;68.08
59063;BME280;44851;45.648;9.004;2023-05-08T06:36:41;99214.16;;;17.85;68.42
59063;BME280;44851;45.648;9.004;2023-05-08T06:39:06;99219.47;;;18.00;69.19
59063;BME280;44851;45.648;9.004;2023-05-08T06:41:32;99218.09;;;18.04;68.72
59063;BME280;44851;45.648;9.004;2023-05-08T06:43:57;99224.47;;;18.09;68.98
59063;BME280;44851;45.648;9.004;2023-05-08T06:46:22;99221.22;;;17.84;67.30
59063;BME280;44851;45.648;9.004;2023-05-08T06:48:48;99222.63;;;18.10;67.97
59063;BME280;44851;45.648;9.004;2023-05-08T06:51:13;99220.19;;;18.23;68.58
59063;BME280;44851;45.648;9.004;2023-05-08T06:53:39;99216.75;;;18.23;67.56
59063;BME280;44851;45.648;9.004;2023-05-08T06:56:04;99215.53;;;18.25;67.57
59063;BME280;44851;45.648;9.004;2023-05-08T06:58:30;99218.44;;;18.30;66.91
59063;BME280;44851;45.648;9.004;2023-05-08T07:00:58;99220.63;;;18.41;66.43
59063;BME280;44851;45.648;9.004;2023-05-08T07:03:23;99224.00;;;18.21;65.73
59063;BME280;44851;45.648;9.004;2023-05-08T07:05:48;99227.91;;;18.39;66.80
59063;BME280;44851;45.648;9.004;2023-05-08T07:08:14;99224.88;;;18.57;67.28
59063;BME280;44851;45.648;9.004;2023-05-08T07:10:39;99221.22;;;18.58;67.07
59063;BME280;44851;45.648;9.004;2023-05-08T07:13:04;99231.44;;;18.32;66.65
59063;BME280;44851;45.648;9.004;2023-05-08T07:15:30;99236.06;;;18.59;67.43
59063;BME280;44851;45.648;9.004;2023-05-08T07:17:56;99227.75;;;18.62;66.73
59063;BME280;44851;45.648;9.004;2023-05-08T07:20:21;99232.69;;;18.65;66.29
59063;BME280;44851;45.648;9.004;2023-05-08T07:22:48;99234.13;;;18.83;66.47
59063;BME280;44851;45.648;9.004;2023-05-08T07:25:13;99236.06;;;18.59;66.30
59063;BME280;44851;45.648;9.004;2023-05-08T07:27:40;99238.59;;;18.67;65.91
59063;BME280;44851;45.648;9.004;2023-05-08T07:30:07;99246.56;;;18.89;66.38
59063;BME280;44851;45.648;9.004;2023-05-08T07:32:32;99246.72;;;18.81;65.20
59063;BME280;44851;45.648;9.004;2023-05-08T07:34:58;99242.66;;;18.85;65.20
59063;BME280;44851;45.648;9.004;2023-05-08T07:37:23;99240.78;;;19.43;63.76
59063;BME280;44851;45.648;9.004;2023-05-08T07:39:49;99236.06;;;19.17;63.07
59063;BME280;44851;45.648;9.004;2023-05-08T07:42:14;99243.06;;;19.46;64.65
59063;BME280;44851;45.648;9.004;2023-05-08T07:44:42;99231.59;;;19.17;63.84
59063;BME280;44851;45.648;9.004;2023-05-08T07:47:07;99240.38;;;19.39;63.22
59063;BME280;44851;45.648;9.004;2023-05-08T07:49:33;99237.97;;;19.66;63.04
59063;BME280;44851;45.648;9.004;2023-05-08T07:51:58;99234.06;;;20.24;62.00
59063;BME280;44851;45.648;9.004;2023-05-08T07:54:23;99241.06;;;20.04;58.97
59063;BME280;44851;45.648;9.004;2023-05-08T07:56:49;99238.41;;;20.04;58.81
59063;BME280;44851;45.648;9.004;2023-05-08T07:59:14;99225.53;;;19.94;59.11
59063;BME280;44851;45.648;9.004;2023-05-08T08:01:39;99233.59;;;20.14;61.59
59063;BME280;44851;45.648;9.004;2023-05-08T08:04:07;99231.59;;;20.30;60.20
59063;BME280;44851;45.648;9.004;2023-05-08T08:06:32;99241.75;;;20.19;57.70
59063;BME280;44851;45.648;9.004;2023-05-08T08:08:57;99231.72;;;20.43;58.97
59063;BME280;44851;45.648;9.004;2023-05-08T08:11:23;99239.16;;;20.81;58.55
59063;BME280;44851;45.648;9.004;2023-05-08T08:13:48;99241.50;;;21.10;59.76
59063;BME280;44851;45.648;9.004;2023-05-08T08:16:14;99234.72;;;20.94;58.72
59063;BME280;44851;45.648;9.004;2023-05-08T08:18:39;99240.41;;;20.85;57.62
59063;BME280;44851;45.648;9.004;2023-05-08T08:21:05;99250.22;;;20.97;59.89
59063;BME280;44851;45.648;9.004;2023-05-08T08:23:31;99242.09;;;21.12;57.68
59063;BME280;44851;45.648;9.004;2023-05-08T08:25:57;99249.47;;;21.23;60.40
59063;BME280;44851;45.648;9.004;2023-05-08T08:28:22;99249.50;;;21.50;57.22
59063;BME280;44851;45.648;9.004;2023-05-08T08:30:48;99247.41;;;21.78;54.83
59063;BME280;44851;45.648;9.004;2023-05-08T08:33:13;99242.97;;;21.86;51.99
59063;BME280;44851;45.648;9.004;2023-05-08T08:35:38;99245.78;;;22.17;53.23
59063;BME280;44851;45.648;9.004;2023-05-08T08:38:04;99236.00;;;21.85;48.44
59063;BME280;44851;45.648;9.004;2023-05-08T08:40:29;99238.47;;;21.79;50.83
59063;BME280;44851;45.648;9.004;2023-05-08T08:42:54;99238.25;;;21.35;50.94
59063;BME280;44851;45.648;9.004;2023-05-08T08:45:20;99236.78;;;21.12;52.33
59063;BME280;44851;45.648;9.004;2023-05-08T08:47:47;99238.16;;;20.88;51.62
59063;BME280;44851;45.648;9.004;2023-05-08T08:50:13;99244.53;;;20.94;52.46
59063;BME280;44851;45.648;9.004;2023-05-08T08:55:25;99244.84;;;20.77;53.71
59063;BME280;44851;45.648;9.004;2023-05-08T09:00:41;99240.41;;;20.78;55.69
59063;BME280;44851;45.648;9.004;2023-05-08T09:03:07;99239.16;;;20.81;54.88
59063;BME280;44851;45.648;9.004;2023-05-08T09:05:33;99243.66;;;20.87;55.26
59063;BME280;44851;45.648;9.004;2023-05-08T09:07:59;99240.88;;;21.15;52.00
59063;BME280;44851;45.648;9.004;2023-05-08T09:10:25;99233.34;;;21.78;54.45
59063;BME280;44851;45.648;9.004;2023-05-08T09:12:50;99238.66;;;21.71;49.87
59063;BME280;44851;45.648;9.004;2023-05-08T09:15:16;99237.84;;;21.51;50.13
59063;BME280;44851;45.648;9.004;2023-05-08T09:17:42;99243.34;;;21.29;52.28
59063;BME280;44851;45.648;9.004;2023-05-08T09:20:08;99237.59;;;21.06;51.51
59063;BME280;44851;45.648;9.004;2023-05-08T09:22:37;99238.59;;;20.92;51.67
59063;BME280;44851;45.648;9.004;2023-05-08T09:25:03;99244.03;;;20.77;51.41
59063;BME280;44851;45.648;9.004;2023-05-08T09:27:29;99249.78;;;20.81;53.27
59063;BME280;44851;45.648;9.004;2023-05-08T09:30:09;99241.59;;;20.75;51.55
59063;BME280;44851;45.648;9.004;2023-05-08T09:32:38;99244.66;;;20.72;52.05
59063;BME280;44851;45.648;9.004;2023-05-08T09:35:05;99247.31;;;20.72;50.53
59063;BME280;44851;45.648;9.004;2023-05-08T09:37:30;99244.44;;;20.67;50.28
59063;BME280;44851;45.648;9.004;2023-05-08T09:40:19;99252.56;;;20.59;50.73
59063;BME280;44851;45.648;9.004;2023-05-08T09:42:49;99246.50;;;20.79;51.80
59063;BME280;44851;45.648;9.004;2023-05-08T09:45:27;99248.97;;;20.87;52.29
59063;BME280;44851;45.648;9.004;2023-05-08T09:47:53;99245.69;;;20.78;51.46
59063;BME280;44851;45.648;9.004;2023-05-08T09:50:19;99250.38;;;20.83;51.12
59063;BME280;44851;45.648;9.004;2023-05-08T09:52:48;99254.41;;;20.65;50.41
59063;BME280;44851;45.648;9.004;2023-05-08T09:55:15;99248.97;;;20.87;49.89
59063;BME280;44851;45.648;9.004;2023-05-08T10:00:16;99255.13;;;21.07;50.90
59063;BME280;44851;45.648;9.004;2023-05-08T10:02:59;99254.78;;;21.23;50.83
59063;BME280;44851;45.648;9.004;2023-05-08T10:05:26;99255.81;;;21.36;51.08
59063;BME280;44851;45.648;9.004;2023-05-08T10:07:54;99261.84;;;21.03;50.86
59063;BME280;44851;45.648;9.004;2023-05-08T10:10:27;99257.94;;;20.86;51.03
59063;BME280;44851;45.648;9.004;2023-05-08T10:12:54;99266.97;;;21.05;53.79
59063;BME280;44851;45.648;9.004;2023-05-08T10:15:41;99267.50;;;20.80;52.28
59063;BME280;44851;45.648;9.004;2023-05-08T10:18:07;99274.22;;;20.83;53.37
59063;BME280;44851;45.648;9.004;2023-05-08T10:20:34;99265.78;;;20.59;52.15
59063;BME280;44851;45.648;9.004;2023-05-08T10:23:06;99262.34;;;20.65;52.07
59063;BME280;44851;45.648;9.004;2023-05-08T10:25:35;99275.44;;;20.73;52.20
59063;BME280;44851;45.648;9.004;2023-05-08T10:28:15;99265.28;;;20.84;52.48
59063;BME280;44851;45.648;9.004;2023-05-08T10:30:45;99273.47;;;21.09;54.71
59063;BME280;44851;45.648;9.004;2023-05-08T10:33:13;99265.16;;;21.25;52.40
59063;BME280;44851;45.648;9.004;2023-05-08T10:35:39;99264.97;;;21.46;53.24
59063;BME280;44851;45.648;9.004;2023-05-08T10:38:07;99258.44;;;21.29;50.79
59063;BME280;44851;45.648;9.004;2023-05-08T10:40:34;99259.28;;;21.49;52.71
59063;BME280;44851;45.648;9.004;2023-05-08T10:42:59;99257.25;;;21.45;51.64
59063;BME280;44851;45.648;9.004;2023-05-08T10:45:26;99242.97;;;21.33;50.65
59063;BME280;44851;45.648;9.004;2023-05-08T10:53:12;99251.31;;;21.83;51.53
59063;BME280;44851;45.648;9.004;2023-05-08T10:55:41;99247.84;;;21.89;50.90
59063;BME280;44851;45.648;9.004;2023-05-08T10:58:13;99248.63;;;22.09;49.19
59063;BME280;44851;45.648;9.004;2023-05-08T11:03:15;99240.09;;;21.94;49.96
59063;BME280;44851;45.648;9.004;2023-05-08T11:05:48;99239.72;;;21.90;49.68
59063;BME280;44851;45.648;9.004;2023-05-08T11:08:19;99237.81;;;21.84;49.73
59063;BME280;44851;45.648;9.004;2023-05-08T11:13:27;99233.84;;;22.40;50.52
59063;BME280;44851;45.648;9.004;2023-05-08T11:15:54;99231.13;;;22.60;46.38
59063;BME280;44851;45.648;9.004;2023-05-08T11:18:21;99232.13;;;22.65;45.00
59063;BME280;44851;45.648;9.004;2023-05-08T11:20:56;99227.50;;;23.17;46.46
59063;BME280;44851;45.648;9.004;2023-05-08T11:23:26;99223.03;;;23.43;48.33
59063;BME280;44851;45.648;9.004;2023-05-08T11:26:01;99223.19;;;23.23;46.45
59063;BME280;44851;45.648;9.004;2023-05-08T11:28:39;99224.69;;;22.80;45.03
59063;BME280;44851;45.648;9.004;2023-05-08T11:31:07;99221.97;;;23.25;48.39
59063;BME280;44851;45.648;9.004;2023-05-08T11:33:36;99218.19;;;23.33;45.66
59063;BME280;44851;45.648;9.004;2023-05-08T11:38:40;99225.00;;;22.91;45.44
59063;BME280;44851;45.648;9.004;2023-05-08T11:47:08;99225.00;;;22.97;45.57
59063;BME280;44851;45.648;9.004;2023-05-08T11:49:18;99219.41;;;23.80;47.01
59063;BME280;44851;45.648;9.004;2023-05-08T11:51:45;99217.25;;;23.96;45.60
59063;BME280;44851;45.648;9.004;2023-05-08T11:54:12;99224.94;;;23.60;44.50
59063;BME280;44851;45.648;9.004;2023-05-08T11:56:38;99224.25;;;23.47;45.58
59063;BME280;44851;45.648;9.004;2023-05-08T11:59:04;99224.47;;;23.88;45.54
59063;BME280;44851;45.648;9.004;2023-05-08T12:01:31;99225.41;;;23.76;46.34
59063;BME280;44851;45.648;9.004;2023-05-08T12:04:04;99226.84;;;23.97;46.51
59063;BME280;44851;45.648;9.004;2023-05-08T12:06:31;99214.88;;;24.06;45.96
59063;BME280;44851;45.648;9.004;2023-05-08T12:08:58;99216.00;;;24.35;45.53
59063;BME280;44851;45.648;9.004;2023-05-08T12:11:24;99207.63;;;23.95;45.42
59063;BME280;44851;45.648;9.004;2023-05-08T12:13:51;99206.53;;;23.59;44.12
59063;BME280;44851;45.648;9.004;2023-05-08T12:16:16;99205.03;;;23.45;45.74
59063;BME280;44851;45.648;9.004;2023-05-08T12:18:42;99206.31;;;23.35;46.53
59063;BME280;44851;45.648;9.004;2023-05-08T12:21:09;99211.72;;;23.22;44.67
59063;BME280;44851;45.648;9.004;2023-05-08T12:23:35;99210.78;;;23.42;45.29
59063;BME280;44851;45.648;9.004;2023-05-08T12:26:01;99211.47;;;23.30;45.00
59063;BME280;44851;45.648;9.004;2023-05-08T12:28:27;99203.38;;;23.44;47.15
59063;BME280;44851;45.648;9.004;2023-05-08T12:30:53;99211.66;;;23.79;45.96
59063;BME280;44851;45.648;9.004;2023-05-08T12:33:19;99206.19;;;23.49;45.17
59063;BME280;44851;45.648;9.004;2023-05-08T12:35:45;99206.63;;;23.21;46.30
59063;BME280;44851;45.648;9.004;2023-05-08T12:38:10;99206.97;;;23.56;46.82
59063;BME280;44851;45.648;9.004;2023-05-08T12:40:41;99197.78;;;23.77;45.32
59063;BME280;44851;45.648;9.004;2023-05-08T12:43:07;99210.34;;;23.45;44.55
59063;BME280;44851;45.648;9.004;2023-05-08T12:45:36;99197.66;;;23.15;44.02
59063;BME280;44851;45.648;9.004;2023-05-08T12:48:05;99194.59;;;23.18;47.03
59063;BME280;44851;45.648;9.004;2023-05-08T12:50:35;99198.44;;;23.47;44.39
59063;BME280;44851;45.648;9.004;2023-05-08T12:53:02;99197.53;;;23.60;44.42
59063;BME280;44851;45.648;9.004;2023-05-08T12:55:30;99192.09;;;23.23;43.12
59063;BME280;44851;45.648;9.004;2023-05-08T12:58:28;99193.03;;;23.04;44.68
59063;BME280;44851;45.648;9.004;2023-05-08T13:01:06;99196.25;;;24.06;45.40
59063;BME280;44851;45.648;9.004;2023-05-08T13:03:34;99189.88;;;24.07;44.07
59063;BME280;44851;45.648;9.004;2023-05-08T13:06:00;99181.72;;;24.57;44.40
59063;BME280;44851;45.648;9.004;2023-05-08T13:08:33;99178.59;;;24.60;43.67
59063;BME280;44851;45.648;9.004;2023-05-08T13:11:00;99185.16;;;24.09;42.59
59063;BME280;44851;45.648;9.004;2023-05-08T13:13:29;99177.00;;;24.40;43.70
59063;BME280;44851;45.648;9.004;2023-05-08T13:15:55;99172.50;;;24.53;44.17
59063;BME280;44851;45.648;9.004;2023-05-08T13:18:24;99173.50;;;24.58;42.62
59063;BME280;44851;45.648;9.004;2023-05-08T13:20:51;99174.94;;;24.24;41.96
59063;BME280;44851;45.648;9.004;2023-05-08T13:23:16;99162.09;;;24.03;41.02
59063;BME280;44851;45.648;9.004;2023-05-08T13:25:41;99162.47;;;24.36;43.54
59063;BME280;44851;45.648;9.004;2023-05-08T13:28:08;99158.53;;;24.57;43.53
59063;BME280;44851;45.648;9.004;2023-05-08T13:30:34;99157.19;;;24.67;43.57
59063;BME280;44851;45.648;9.004;2023-05-08T13:33:01;99161.34;;;24.44;42.14
59063;BME280;44851;45.648;9.004;2023-05-08T13:35:26;99155.72;;;24.04;42.59
59063;BME280;44851;45.648;9.004;2023-05-08T13:37:55;99161.94;;;23.98;42.95
59063;BME280;44851;45.648;9.004;2023-05-08T13:40:22;99150.22;;;24.17;44.24